Central Oregon RPC :: LAKEVIEW A

liberation: 2020-08-15  06:45     latitude: 42.271117     longitude: -120.354933 127 birds
# LOFT PRING MILES ARRIVAL SPEED ToWin
1 HENDRICKSON FAMILY LOFT AU20-CORP-5260 144.79 2020-08-15 09:51:28.394 1366.577 00:00:00
2 HENDRICKSON FAMILY LOFT AU20-CORP-5273 144.79 2020-08-15 09:51:31.830 1366.157 00:00:03
3 HENDRICKSON FAMILY LOFT IF20-EART-0017 144.79 2020-08-15 09:51:34.874 1365.786 00:00:06
4 RUETER FAMILY LOFT AU20-CORP-4531 174.665 2020-08-15 10:30:06.998 1365.561 00:00:10
5 RUETER FAMILY LOFT AU20-CORP-4536 174.665 2020-08-15 10:30:11.551 1365.101 00:00:15
6 RUETER FAMILY LOFT AU20-CORP-4571 174.665 2020-08-15 10:30:21.469 1364.099 00:00:25
7 AMERICAN LOFT AU20-CORP-5438 144.711 2020-08-15 09:51:51.086 1363.073 00:00:29
8 AMERICAN LOFT AU20-CORP-5443 144.711 2020-08-15 09:51:53.420 1362.789 00:00:31
9 HENDRICKSON FAMILY LOFT AU20-CORP-5291 144.79 2020-08-15 09:53:47.244 1349.825 00:02:19
10 RUETER FAMILY LOFT AU20-CORP-4588 174.665 2020-08-15 10:33:55.496 1342.844 00:03:59
11 RUETER FAMILY LOFT AU20-CORP-4534 174.665 2020-08-15 10:34:22.066 1340.251 00:04:25
12 RUETER FAMILY LOFT AU20-CORP-4622 174.665 2020-08-15 10:34:34.194 1339.071 00:04:37
13 RUETER FAMILY LOFT AU20-CORP-4525 174.665 2020-08-15 10:34:42.589 1338.256 00:04:46
14 RUETER FAMILY LOFT AU20-CORP-4537 174.665 2020-08-15 10:36:03.190 1330.475 00:06:06
15 RIMROCK FLYERS AU20-CORP-4207 145.464 2020-08-15 09:59:30.540 1316.216 00:07:10
16 RIMROCK FLYERS AU20-CORP-4205 145.464 2020-08-15 09:59:32.701 1315.972 00:07:12
17 STEELE LOFT AU20-JEDD-14775 148.476 2020-08-15 10:04:00.818 1313.065 00:07:48
18 STEELE LOFT AU20-JEDD-14783 148.476 2020-08-15 10:04:03.611 1312.758 00:07:50
19 STEELE LOFT AU20-CORP-5086 148.476 2020-08-15 10:04:20.474 1310.907 00:08:07
20 ROCKY TOP AU20-CORP-4424 140.998 2020-08-15 09:54:44.246 1307.897 00:08:09
21 ROCKY TOP AU20-PNW-2506 140.998 2020-08-15 09:54:56.452 1306.497 00:08:21
22 STEELE LOFT AU20-CORP-5005 148.476 2020-08-15 10:05:06.863 1305.843 00:08:54
23 STEELE LOFT AU20-CORP-5084 148.476 2020-08-15 10:05:14.707 1304.990 00:09:01
24 STEELE LOFT AU20-JEDD-14776 148.476 2020-08-15 10:05:17.601 1304.676 00:09:04
25 ROCKY TOP AU20-CORP-4415 140.998 2020-08-15 09:55:44.156 1301.050 00:09:09
26 RIMROCK FLYERS AU20-CORP-4753 145.464 2020-08-15 10:02:00.646 1299.502 00:09:40
27 STEELE LOFT AU20-CORP-5082 148.476 2020-08-15 10:06:25.613 1297.334 00:10:12
28 TOPIGEONUSA AU20-CORP-4300 148.159 2020-08-15 10:06:13.119 1295.899 00:10:24
29 TOPIGEONUSA AU20-CORP-4866 148.159 2020-08-15 10:06:14.641 1295.736 00:10:26
30 TOPIGEONUSA AU20-CORP-4361 148.159 2020-08-15 10:06:14.771 1295.722 00:10:26
31 RIMROCK FLYERS AU20-CORP-4201 145.464 2020-08-15 10:03:37.422 1288.949 00:11:17
32 TOPIGEONUSA AU20-CORP-4867 148.159 2020-08-15 10:07:58.297 1284.707 00:12:10
33 ROCKY TOP AU20-CORP-4435 140.998 2020-08-15 09:58:18.122 1283.779 00:11:43
34 ROCKY TOP AU20-CORP-4414 140.998 2020-08-15 09:58:19.628 1283.612 00:11:44
35 STEELE LOFT AU20-CORP-5090 148.476 2020-08-15 10:08:34.999 1283.592 00:12:22
36 STEELE LOFT AU20-CORP-5088 148.476 2020-08-15 10:08:45.848 1282.453 00:12:33
37 HENDRICKSON FAMILY LOFT AU20-CORP-5290 144.79 2020-08-15 10:04:21.123 1278.291 00:12:53
38 HENDRICKSON FAMILY LOFT IF20-EART-0018 144.79 2020-08-15 10:04:25.589 1277.814 00:12:57
39 JACKSONS LOFT AU20-CORP-5534 119.175 2020-08-15 09:33:58.081 1241.344 00:15:29
40 JACKSONS LOFT AU20-CORP-4647 119.175 2020-08-15 09:33:59.903 1241.120 00:15:31
41 ROCKY TOP AU20-CORP-4441 140.998 2020-08-15 10:05:57.059 1234.913 00:19:22
42 JACKSONS LOFT AU20-CORP-4644 119.175 2020-08-15 09:35:05.542 1233.138 00:16:37
43 TIM GRAVES AU20-CORP-4730 139.449 2020-08-15 10:05:00.120 1227.140 00:20:24
44 TIM GRAVES AU20-CORP-4729 139.449 2020-08-15 10:05:03.190 1226.826 00:20:27
45 JACKSONS LOFT AU20-CORP-4667 119.175 2020-08-15 09:36:44.658 1221.277 00:18:16
46 TIM GRAVES AU20-CORP-4743 139.449 2020-08-15 10:06:20.491 1218.976 00:21:45
47 RUETER FAMILY LOFT AU20-CORP-4550 174.665 2020-08-15 10:57:31.412 1217.354 00:27:34
48 TOPIGEONUSA AU20-CORP-4310 148.159 2020-08-15 10:21:57.563 1201.880 00:26:09
49 TOPIGEONUSA AU20-CORP-4376 148.159 2020-08-15 10:25:21.605 1183.332 00:29:33
50 STEELE LOFT AU20-CORP-5002 148.476 2020-08-15 10:26:25.268 1180.185 00:30:12
51 STEELE LOFT AU20-CORP-5026 148.476 2020-08-15 10:26:40.288 1178.852 00:30:27
52 TOPIGEONUSA AU20-CORP-4855 148.159 2020-08-15 10:27:00.564 1174.541 00:31:12
53 TOPIGEONUSA AU20-CORP-4870 148.159 2020-08-15 10:27:15.860 1173.194 00:31:27
54 TOPIGEONUSA AU20-CORP-4375 148.159 2020-08-15 10:27:17.370 1173.061 00:31:29
55 TOPIGEONUSA AU20-CORP-4857 148.159 2020-08-15 10:27:22.045 1172.650 00:31:33
56 TOPIGEONUSA AU20-CORP-4858 148.159 2020-08-15 10:29:44.089 1160.297 00:33:55
57 STEELE LOFT AU20-BORD-20069 148.476 2020-08-15 10:30:51.465 1157.002 00:34:38
58 RIMROCK FLYERS AU20-CORP-4751 145.464 2020-08-15 10:28:14.679 1146.795 00:35:54
59 RIMROCK FLYERS AU20-CORP-4755 145.464 2020-08-15 10:28:19.541 1146.379 00:35:59
60 TIM GRAVES AU20-CORP-4705 139.449 2020-08-15 10:20:24.676 1139.357 00:35:49
61 RUETER FAMILY LOFT AU20-CORP-4568 174.665 2020-08-15 11:16:14.491 1133.346 00:46:18
62 ROCKY TOP AU20-CORP-4446 140.998 2020-08-15 10:25:22.453 1126.071 00:38:47
63 JACKSONS LOFT AU20-CORP-4665 119.175 2020-08-15 09:54:17.154 1108.098 00:35:48
64 RUETER FAMILY LOFT AU20-CORP-4555 174.665 2020-08-15 11:22:54.643 1106.148 00:52:58
65 AMERICAN LOFT AU20-CORP-5576 144.711 2020-08-15 10:35:30.089 1104.948 00:44:08
66 AMERICAN LOFT AU20-CORP-5431 144.711 2020-08-15 10:35:31.619 1104.826 00:44:09
67 HENDRICKSON FAMILY LOFT AU20-CORP-5251 144.79 2020-08-15 10:36:27.291 1100.992 00:44:59
68 RIMROCK FLYERS AU20-CORP-4211 145.464 2020-08-15 10:41:13.744 1083.761 00:48:53
69 HENDRICKSON FAMILY LOFT AU20-CORP-5259 144.79 2020-08-15 10:44:24.119 1064.444 00:52:56
70 ROCKY TOP AU20-CORP-4440 140.998 2020-08-15 10:44:20.761 1036.813 00:57:45
71 ROCKY TOP AU20-CORP-4433 140.998 2020-08-15 10:44:21.650 1036.749 00:57:46
72 HENDRICKSON FAMILY LOFT AU20-CORP-5252 144.79 2020-08-15 10:55:14.489 1018.336 01:03:46
73 RIMROCK FLYERS AU20-CORP-4212 145.464 2020-08-15 11:08:10.092 972.822 01:15:50
74 ROCKY TOP AU20-CORP-4420 140.998 2020-08-15 11:15:33.733 917.190 01:28:58
75 ROCKY TOP AU20-CORP-4451 140.998 2020-08-15 11:15:34.401 917.153 01:28:59
76 TOPIGEONUSA AU20-CORP-4394 148.159 2020-08-15 11:39:58.408 884.009 01:44:10
77 JACKSONS LOFT AU20-CORP-5523 119.175 2020-08-15 10:43:48.894 878.284 01:25:20
78 JACKSONS LOFT AU20-CORP-5472 119.175 2020-08-15 10:47:42.655 864.186 01:29:14
79 STEELE LOFT AU20-JEDD-14785 148.476 2020-08-15 12:18:40.095 783.167 02:22:27
80 STEELE LOFT AU20-CORP-5038 148.476 2020-08-15 12:20:07.051 779.780 02:23:54
81 RIMROCK FLYERS AU20-CORP-4204 145.464 2020-08-15 12:17:48.621 769.255 02:25:28
82 TIM GRAVES AU20-CORP-4727 139.449 2020-08-15 12:08:32.629 758.569 02:23:57
83 JACKSONS LOFT AU20-CORP-4660 119.175 2020-08-15 11:23:19.652 753.599 02:04:51
84 AMERICAN LOFT AU20-CORP-5424 144.711 2020-08-15 12:26:17.056 746.276 02:34:55
85 JACKSONS LOFT AU20-CORP-5524 119.175 2020-08-15 11:35:09.429 722.875 02:16:40
86 JACKSONS LOFT AU20-CORP-5528 119.175 2020-08-15 11:35:15.849 722.609 02:16:47
87 RIMROCK FLYERS AU20-CORP-4760 145.464 2020-08-15 14:22:58.746 559.012 04:30:38
88 RUETER FAMILY LOFT AU20-CORP-4507 174.665 2020-08-15 19:16:39.112 408.980 08:46:42
89 TOPIGEONUSA AU20-CORP-4898 148.159 2020-08-15 17:39:27.091 398.439 07:43:38
90 RUETER FAMILY LOFT AU20-CORP-4621 174.665 2020-08-15 20:25:18.617 374.749 09:55:22
91 HENDRICKSON FAMILY LOFT AU20-CORP-5267 144.79 2020-08-15 18:09:37.528 372.218 08:18:09
92 STEELE LOFT AU20-CORP-5022 148.476 2020-08-15 18:52:09.334 359.370 08:55:56
93 ROCKY TOP AU20-CORP-4422 140.998 2020-08-15 19:04:06.342 335.753 09:17:31
94 RIMROCK FLYERS AU20-CORP-4208 145.464 2020-08-15 19:47:45.476 327.069 09:55:25
95 RUETER FAMILY LOFT AU20-CORP-4551 174.665 2020-08-16 09:04:50.600 298.193 13:25:58
96 JACKSONS LOFT AU20-CORP-5201 119.175 2020-08-15 18:30:17.246 297.393 09:11:48
97 AMERICAN LOFT AU20-CORP-5409 144.711 2020-08-16 07:18:02.344 275.609 12:17:44
98 AMERICAN LOFT AU20-CORP-5482 144.711 2020-08-16 07:28:56.626 272.395 12:28:38
99 AMERICAN LOFT AU20-CORP-5442 144.711 2020-08-16 07:31:16.362 271.718 12:30:58
100 TIM GRAVES AU20-CORP-4720 139.449 2020-08-16 06:59:28.820 271.030 12:05:57
101 AMERICAN LOFT AU20-CORP-5485 144.711 2020-08-16 08:04:58.318 262.288 13:04:40
102 AMERICAN LOFT AU20-CORP-5456 144.711 2020-08-16 08:41:26.903 252.792 13:41:09
103 JACKSONS LOFT AU20-CORP-5200 119.175 2020-08-16 08:12:37.965 214.312 13:45:13
AMERICAN LOFT AU20-CORP-5413 0 0000-00-00 00:00:00.000 0.000 00:00:00
AMERICAN LOFT AU20-CORP-5427 0 0000-00-00 00:00:00.000 0.000 00:00:00
AMERICAN LOFT AU20-CORP-5439 0 0000-00-00 00:00:00.000 0.000 00:00:00
AMERICAN LOFT AU20-CORP-5487 0 0000-00-00 00:00:00.000 0.000 00:00:00
AMERICAN LOFT AU20-CORP-5488 0 0000-00-00 00:00:00.000 0.000 00:00:00
HENDRICKSON FAMILY LOFT AU20-ARPU-28120 0 0000-00-00 00:00:00.000 0.000 00:00:00
HENDRICKSON FAMILY LOFT AU20-ARPU-28121 0 0000-00-00 00:00:00.000 0.000 00:00:00
HENDRICKSON FAMILY LOFT AU20-CORP-5282 0 0000-00-00 00:00:00.000 0.000 00:00:00
HENDRICKSON FAMILY LOFT IF20-EART-0023 0 0000-00-00 00:00:00.000 0.000 00:00:00
HENDRICKSON FAMILY LOFT IF20-EART-0025 0 0000-00-00 00:00:00.000 0.000 00:00:00
JACKSONS LOFT AU20-CORP-4650 0 0000-00-00 00:00:00.000 0.000 00:00:00
JACKSONS LOFT AU20-CORP-5529 0 0000-00-00 00:00:00.000 0.000 00:00:00
JACKSONS LOFT AU20-CORP-5540 0 0000-00-00 00:00:00.000 0.000 00:00:00
RIMROCK FLYERS AU20-CORP-4202 0 0000-00-00 00:00:00.000 0.000 00:00:00
RIMROCK FLYERS AU20-CORP-4759 0 0000-00-00 00:00:00.000 0.000 00:00:00
ROCKY TOP AU20-CORP-4413 0 0000-00-00 00:00:00.000 0.000 00:00:00
ROCKY TOP AU20-CORP-4431 0 0000-00-00 00:00:00.000 0.000 00:00:00
ROCKY TOP AU20-PNW-2501 0 0000-00-00 00:00:00.000 0.000 00:00:00
RUETER FAMILY LOFT AU20-CORP-4589 0 0000-00-00 00:00:00.000 0.000 00:00:00
TIM GRAVES AU20-CORP-4701 0 0000-00-00 00:00:00.000 0.000 00:00:00
TIM GRAVES AU20-CORP-4721 0 0000-00-00 00:00:00.000 0.000 00:00:00
TIM GRAVES AU20-CORP-4739 0 0000-00-00 00:00:00.000 0.000 00:00:00
TOPIGEONUSA AU20-CORP-4396 0 0000-00-00 00:00:00.000 0.000 00:00:00
TOPIGEONUSA AU20-CORP-4849 0 0000-00-00 00:00:00.000 0.000 00:00:00